sensor_id;sensor_type;location;lat;lon;timestamp;temperature;humidity
5901;DHT22;2976;49.764;9.796;2023-07-13T00:02:00;18.40;99.90
5901;DHT22;2976;49.764;9.796;2023-07-13T00:04:26;18.30;99.90
5901;DHT22;2976;49.764;9.796;2023-07-13T00:06:53;18.20;99.90
5901;DHT22;2976;49.764;9.796;2023-07-13T00:09:19;18.20;99.90
5901;DHT22;2976;49.764;9.796;2023-07-13T00:11:49;18.20;99.90
5901;DHT22;2976;49.764;9.796;2023-07-13T00:14:15;18.20;99.90
5901;DHT22;2976;49.764;9.796;2023-07-13T00:16:41;18.30;99.90
5901;DHT22;2976;49.764;9.796;2023-07-13T00:19:10;18.30;99.90
5901;DHT22;2976;49.764;9.796;2023-07-13T00:21:37;18.30;99.90
5901;DHT22;2976;49.764;9.796;2023-07-13T00:24:03;18.30;99.90
5901;DHT22;2976;49.764;9.796;2023-07-13T00:26:28;18.20;99.90
5901;DHT22;2976;49.764;9.796;2023-07-13T00:28:54;18.20;99.90
5901;DHT22;2976;49.764;9.796;2023-07-13T00:31:20;18.10;99.90
5901;DHT22;2976;49.764;9.796;2023-07-13T00:33:45;17.90;99.90
5901;DHT22;2976;49.764;9.796;2023-07-13T00:36:11;17.80;99.90
5901;DHT22;2976;49.764;9.796;2023-07-13T00:38:37;17.70;99.90
5901;DHT22;2976;49.764;9.796;2023-07-13T00:41:04;17.60;99.90
5901;DHT22;2976;49.764;9.796;2023-07-13T00:43:30;17.50;99.90
5901;DHT22;2976;49.764;9.796;2023-07-13T00:48:26;17.40;99.90
5901;DHT22;2976;49.764;9.796;2023-07-13T00:50:55;17.30;99.90
5901;DHT22;2976;49.764;9.796;2023-07-13T00:53:22;17.30;99.90
5901;DHT22;2976;49.764;9.796;2023-07-13T00:55:51;17.20;99.90
5901;DHT22;2976;49.764;9.796;2023-07-13T00:58:18;17.10;99.90
5901;DHT22;2976;49.764;9.796;2023-07-13T01:00:46;17.10;99.90
5901;DHT22;2976;49.764;9.796;2023-07-13T01:03:12;17.10;99.90
5901;DHT22;2976;49.764;9.796;2023-07-13T01:05:37;17.10;99.90
5901;DHT22;2976;49.764;9.796;2023-07-13T01:08:04;17.10;99.90
5901;DHT22;2976;49.764;9.796;2023-07-13T01:10:31;17.10;99.90
5901;DHT22;2976;49.764;9.796;2023-07-13T01:13:07;17.20;99.90
5901;DHT22;2976;49.764;9.796;2023-07-13T01:15:44;17.10;99.90
5901;DHT22;2976;49.764;9.796;2023-07-13T01:18:16;17.10;99.90
5901;DHT22;2976;49.764;9.796;2023-07-13T01:23:22;16.90;99.90
5901;DHT22;2976;49.764;9.796;2023-07-13T01:25:47;16.90;99.90
5901;DHT22;2976;49.764;9.796;2023-07-13T01:28:13;16.80;99.90
5901;DHT22;2976;49.764;9.796;2023-07-13T01:30:40;16.60;99.90
5901;DHT22;2976;49.764;9.796;2023-07-13T01:33:07;16.50;99.90
5901;DHT22;2976;49.764;9.796;2023-07-13T01:35:33;16.30;99.90
5901;DHT22;2976;49.764;9.796;2023-07-13T01:37:59;16.20;99.90
5901;DHT22;2976;49.764;9.796;2023-07-13T01:40:27;16.10;99.90
5901;DHT22;2976;49.764;9.796;2023-07-13T01:42:53;16.00;99.90
5901;DHT22;2976;49.764;9.796;2023-07-13T01:45:19;15.90;99.90
5901;DHT22;2976;49.764;9.796;2023-07-13T01:47:44;15.90;99.90
5901;DHT22;2976;49.764;9.796;2023-07-13T01:50:10;15.70;99.90
5901;DHT22;2976;49.764;9.796;2023-07-13T01:52:36;15.70;99.90
5901;DHT22;2976;49.764;9.796;2023-07-13T01:55:01;15.60;99.90
5901;DHT22;2976;49.764;9.796;2023-07-13T01:57:27;15.60;99.90
5901;DHT22;2976;49.764;9.796;2023-07-13T01:59:53;15.60;99.90
5901;DHT22;2976;49.764;9.796;2023-07-13T02:02:18;15.80;99.90
5901;DHT22;2976;49.764;9.796;2023-07-13T02:04:44;15.80;99.90
5901;DHT22;2976;49.764;9.796;2023-07-13T02:07:10;15.80;99.90
5901;DHT22;2976;49.764;9.796;2023-07-13T02:09:36;15.80;99.90
5901;DHT22;2976;49.764;9.796;2023-07-13T02:12:02;15.90;99.90
5901;DHT22;2976;49.764;9.796;2023-07-13T02:14:27;15.90;99.90
5901;DHT22;2976;49.764;9.796;2023-07-13T02:16:53;15.90;99.90
5901;DHT22;2976;49.764;9.796;2023-07-13T02:19:19;16.00;99.90
5901;DHT22;2976;49.764;9.796;2023-07-13T02:21:44;16.00;99.90
5901;DHT22;2976;49.764;9.796;2023-07-13T02:24:10;16.00;99.90
5901;DHT22;2976;49.764;9.796;2023-07-13T02:26:40;15.90;99.90
5901;DHT22;2976;49.764;9.796;2023-07-13T02:29:05;15.90;99.90
5901;DHT22;2976;49.764;9.796;2023-07-13T02:31:31;15.90;99.90
5901;DHT22;2976;49.764;9.796;2023-07-13T02:33:56;15.90;99.90
5901;DHT22;2976;49.764;9.796;2023-07-13T02:36:22;15.90;99.90
5901;DHT22;2976;49.764;9.796;2023-07-13T02:38:50;15.80;99.90
5901;DHT22;2976;49.764;9.796;2023-07-13T02:41:15;15.70;99.90
5901;DHT22;2976;49.764;9.796;2023-07-13T02:43:41;15.60;99.90
5901;DHT22;2976;49.764;9.796;2023-07-13T02:46:06;15.50;99.90
5901;DHT22;2976;49.764;9.796;2023-07-13T02:48:33;15.30;99.90
5901;DHT22;2976;49.764;9.796;2023-07-13T02:50:59;15.20;99.90
5901;DHT22;2976;49.764;9.796;2023-07-13T02:53:25;15.00;99.90
5901;DHT22;2976;49.764;9.796;2023-07-13T02:55:50;14.90;99.90
5901;DHT22;2976;49.764;9.796;2023-07-13T02:58:16;14.80;99.90
5901;DHT22;2976;49.764;9.796;2023-07-13T03:00:43;14.70;99.90
5901;DHT22;2976;49.764;9.796;2023-07-13T03:03:09;14.60;99.90
5901;DHT22;2976;49.764;9.796;2023-07-13T03:05:37;14.50;99.90
5901;DHT22;2976;49.764;9.796;2023-07-13T03:08:03;14.40;99.90
5901;DHT22;2976;49.764;9.796;2023-07-13T03:10:29;14.40;99.90
5901;DHT22;2976;49.764;9.796;2023-07-13T03:12:54;14.30;99.90
5901;DHT22;2976;49.764;9.796;2023-07-13T03:15:20;14.30;99.90
5901;DHT22;2976;49.764;9.796;2023-07-13T03:20:21;14.20;99.90
5901;DHT22;2976;49.764;9.796;2023-07-13T03:22:46;14.20;99.90
5901;DHT22;2976;49.764;9.796;2023-07-13T03:25:12;14.20;99.90
5901;DHT22;2976;49.764;9.796;2023-07-13T03:27:38;14.20;99.90
5901;DHT22;2976;49.764;9.796;2023-07-13T03:30:05;14.10;99.90
5901;DHT22;2976;49.764;9.796;2023-07-13T03:32:31;14.00;99.90
5901;DHT22;2976;49.764;9.796;2023-07-13T03:34:56;14.10;99.90
5901;DHT22;2976;49.764;9.796;2023-07-13T03:37:22;14.00;99.90
5901;DHT22;2976;49.764;9.796;2023-07-13T03:39:47;14.00;99.90
5901;DHT22;2976;49.764;9.796;2023-07-13T03:42:13;14.00;99.90
5901;DHT22;2976;49.764;9.796;2023-07-13T03:44:40;13.90;99.90
5901;DHT22;2976;49.764;9.796;2023-07-13T03:47:06;14.00;99.90
5901;DHT22;2976;49.764;9.796;2023-07-13T03:49:34;14.10;99.90
5901;DHT22;2976;49.764;9.796;2023-07-13T03:52:00;14.20;99.90
5901;DHT22;2976;49.764;9.796;2023-07-13T03:54:25;14.40;99.90
5901;DHT22;2976;49.764;9.796;2023-07-13T03:56:51;14.40;99.90
5901;DHT22;2976;49.764;9.796;2023-07-13T03:59:16;14.50;99.90
5901;DHT22;2976;49.764;9.796;2023-07-13T04:01:44;14.50;99.90
5901;DHT22;2976;49.764;9.796;2023-07-13T04:04:09;14.50;99.90
5901;DHT22;2976;49.764;9.796;2023-07-13T04:06:35;14.50;99.90
5901;DHT22;2976;49.764;9.796;2023-07-13T04:09:02;14.50;99.90
5901;DHT22;2976;49.764;9.796;2023-07-13T04:11:31;14.50;99.90
5901;DHT22;2976;49.764;9.796;2023-07-13T04:13:57;14.50;99.90
5901;DHT22;2976;49.764;9.796;2023-07-13T04:16:23;14.60;99.90
5901;DHT22;2976;49.764;9.796;2023-07-13T04:18:49;14.60;99.90
5901;DHT22;2976;49.764;9.796;2023-07-13T04:21:16;14.70;99.90
5901;DHT22;2976;49.764;9.796;2023-07-13T04:23:41;14.90;99.90
5901;DHT22;2976;49.764;9.796;2023-07-13T04:26:08;15.00;99.90
5901;DHT22;2976;49.764;9.796;2023-07-13T04:28:34;15.30;99.90
5901;DHT22;2976;49.764;9.796;2023-07-13T04:31:00;15.40;99.90
5901;DHT22;2976;49.764;9.796;2023-07-13T04:33:27;15.60;99.90
5901;DHT22;2976;49.764;9.796;2023-07-13T04:35:54;16.20;99.90
5901;DHT22;2976;49.764;9.796;2023-07-13T04:38:22;17.40;99.90
5901;DHT22;2976;49.764;9.796;2023-07-13T04:40:48;18.90;99.90
5901;DHT22;2976;49.764;9.796;2023-07-13T04:43:14;20.40;99.90
5901;DHT22;2976;49.764;9.796;2023-07-13T04:45:41;21.60;94.70
5901;DHT22;2976;49.764;9.796;2023-07-13T04:48:07;22.80;89.80
5901;DHT22;2976;49.764;9.796;2023-07-13T04:50:36;23.00;88.00
5901;DHT22;2976;49.764;9.796;2023-07-13T04:53:01;23.00;87.30
5901;DHT22;2976;49.764;9.796;2023-07-13T04:55:28;22.00;85.30
5901;DHT22;2976;49.764;9.796;2023-07-13T04:57:56;20.80;89.20
5901;DHT22;2976;49.764;9.796;2023-07-13T05:00:21;19.90;91.70
5901;DHT22;2976;49.764;9.796;2023-07-13T05:02:47;19.30;93.40
5901;DHT22;2976;49.764;9.796;2023-07-13T05:05:12;18.80;95.00
5901;DHT22;2976;49.764;9.796;2023-07-13T05:07:38;18.40;96.80
5901;DHT22;2976;49.764;9.796;2023-07-13T05:10:04;18.30;98.50
5901;DHT22;2976;49.764;9.796;2023-07-13T05:12:30;18.30;99.90
5901;DHT22;2976;49.764;9.796;2023-07-13T05:14:56;18.40;99.90
5901;DHT22;2976;49.764;9.796;2023-07-13T05:17:21;18.30;99.90
5901;DHT22;2976;49.764;9.796;2023-07-13T05:19:47;18.30;99.90
5901;DHT22;2976;49.764;9.796;2023-07-13T05:22:12;18.30;99.90
5901;DHT22;2976;49.764;9.796;2023-07-13T05:24:38;18.40;99.90
5901;DHT22;2976;49.764;9.796;2023-07-13T05:27:04;18.70;99.90
5901;DHT22;2976;49.764;9.796;2023-07-13T05:29:29;19.90;99.90
5901;DHT22;2976;49.764;9.796;2023-07-13T05:31:55;21.20;94.60
5901;DHT22;2976;49.764;9.796;2023-07-13T05:34:21;22.30;92.10
5901;DHT22;2976;49.764;9.796;2023-07-13T05:36:46;22.90;85.60
5901;DHT22;2976;49.764;9.796;2023-07-13T05:39:12;23.10;85.20
5901;DHT22;2976;49.764;9.796;2023-07-13T05:41:38;23.50;82.80
5901;DHT22;2976;49.764;9.796;2023-07-13T05:44:03;23.40;82.50
5901;DHT22;2976;49.764;9.796;2023-07-13T05:46:29;23.10;82.50
5901;DHT22;2976;49.764;9.796;2023-07-13T05:48:56;22.80;83.80
5901;DHT22;2976;49.764;9.796;2023-07-13T05:51:21;22.80;82.90
5901;DHT22;2976;49.764;9.796;2023-07-13T05:53:47;22.50;82.70
5901;DHT22;2976;49.764;9.796;2023-07-13T05:56:12;22.10;84.40
5901;DHT22;2976;49.764;9.796;2023-07-13T05:58:38;21.70;86.20
5901;DHT22;2976;49.764;9.796;2023-07-13T06:01:05;21.90;85.80
5901;DHT22;2976;49.764;9.796;2023-07-13T06:03:32;21.90;85.40
5901;DHT22;2976;49.764;9.796;2023-07-13T06:05:57;21.70;85.20
5901;DHT22;2976;49.764;9.796;2023-07-13T06:08:25;21.20;84.50
5901;DHT22;2976;49.764;9.796;2023-07-13T06:10:51;20.60;86.60
5901;DHT22;2976;49.764;9.796;2023-07-13T06:13:16;20.10;88.70
5901;DHT22;2976;49.764;9.796;2023-07-13T06:15:48;19.60;90.90
5901;DHT22;2976;49.764;9.796;2023-07-13T06:18:14;19.70;91.40
5901;DHT22;2976;49.764;9.796;2023-07-13T06:20:40;20.00;90.30
5901;DHT22;2976;49.764;9.796;2023-07-13T06:23:05;20.30;89.60
5901;DHT22;2976;49.764;9.796;2023-07-13T06:25:31;20.20;88.80
5901;DHT22;2976;49.764;9.796;2023-07-13T06:27:56;20.10;89.80
5901;DHT22;2976;49.764;9.796;2023-07-13T06:30:22;20.50;88.00
5901;DHT22;2976;49.764;9.796;2023-07-13T06:32:49;21.60;85.70
5901;DHT22;2976;49.764;9.796;2023-07-13T06:35:14;22.30;82.50
5901;DHT22;2976;49.764;9.796;2023-07-13T06:37:40;22.70;80.30
5901;DHT22;2976;49.764;9.796;2023-07-13T06:40:06;23.00;80.10
5901;DHT22;2976;49.764;9.796;2023-07-13T06:42:31;23.00;79.50
5901;DHT22;2976;49.764;9.796;2023-07-13T06:44:57;23.00;79.30
5901;DHT22;2976;49.764;9.796;2023-07-13T06:47:23;23.10;78.50
5901;DHT22;2976;49.764;9.796;2023-07-13T06:49:48;23.30;78.30
5901;DHT22;2976;49.764;9.796;2023-07-13T06:52:14;23.00;77.80
5901;DHT22;2976;49.764;9.796;2023-07-13T06:54:39;22.80;78.10
5901;DHT22;2976;49.764;9.796;2023-07-13T06:57:05;22.60;77.70
5901;DHT22;2976;49.764;9.796;2023-07-13T06:59:30;22.60;78.00
5901;DHT22;2976;49.764;9.796;2023-07-13T07:01:56;22.60;78.10
5901;DHT22;2976;49.764;9.796;2023-07-13T07:04:21;23.20;77.40
5901;DHT22;2976;49.764;9.796;2023-07-13T07:06:47;23.20;75.40
5901;DHT22;2976;49.764;9.796;2023-07-13T07:09:13;22.90;75.00
5901;DHT22;2976;49.764;9.796;2023-07-13T07:11:39;22.80;75.10
5901;DHT22;2976;49.764;9.796;2023-07-13T07:14:04;22.30;74.60
5901;DHT22;2976;49.764;9.796;2023-07-13T07:16:30;21.90;76.60
5901;DHT22;2976;49.764;9.796;2023-07-13T07:18:55;22.10;76.30
5901;DHT22;2976;49.764;9.796;2023-07-13T07:21:21;22.10;77.20
5901;DHT22;2976;49.764;9.796;2023-07-13T07:23:48;22.30;76.70
5901;DHT22;2976;49.764;9.796;2023-07-13T07:26:14;22.50;74.70
5901;DHT22;2976;49.764;9.796;2023-07-13T07:28:40;22.30;75.40
5901;DHT22;2976;49.764;9.796;2023-07-13T07:31:05;21.90;75.50
5901;DHT22;2976;49.764;9.796;2023-07-13T07:33:33;21.90;76.50
5901;DHT22;2976;49.764;9.796;2023-07-13T07:35:59;22.10;75.60
5901;DHT22;2976;49.764;9.796;2023-07-13T07:38:24;22.30;74.50
5901;DHT22;2976;49.764;9.796;2023-07-13T07:40:51;22.60;74.10
5901;DHT22;2976;49.764;9.796;2023-07-13T07:43:16;22.90;74.30
5901;DHT22;2976;49.764;9.796;2023-07-13T07:45:44;23.00;73.00
5901;DHT22;2976;49.764;9.796;2023-07-13T07:48:11;23.00;70.90
5901;DHT22;2976;49.764;9.796;2023-07-13T07:50:36;22.60;71.40
5901;DHT22;2976;49.764;9.796;2023-07-13T07:53:03;22.50;71.60
5901;DHT22;2976;49.764;9.796;2023-07-13T07:55:33;22.60;70.80
5901;DHT22;2976;49.764;9.796;2023-07-13T07:57:59;22.50;70.70
5901;DHT22;2976;49.764;9.796;2023-07-13T08:00:25;22.40;70.90
5901;DHT22;2976;49.764;9.796;2023-07-13T08:02:50;22.40;70.80
5901;DHT22;2976;49.764;9.796;2023-07-13T08:05:16;22.70;71.60
5901;DHT22;2976;49.764;9.796;2023-07-13T08:07:41;23.10;70.00
5901;DHT22;2976;49.764;9.796;2023-07-13T08:10:08;23.80;69.90
5901;DHT22;2976;49.764;9.796;2023-07-13T08:12:35;24.10;68.70
5901;DHT22;2976;49.764;9.796;2023-07-13T08:15:00;23.70;67.90
5901;DHT22;2976;49.764;9.796;2023-07-13T08:17:26;23.20;69.40
5901;DHT22;2976;49.764;9.796;2023-07-13T08:19:51;23.10;68.70
5901;DHT22;2976;49.764;9.796;2023-07-13T08:22:17;22.90;69.30
5901;DHT22;2976;49.764;9.796;2023-07-13T08:24:43;22.70;68.60
5901;DHT22;2976;49.764;9.796;2023-07-13T08:27:09;22.60;69.30
5901;DHT22;2976;49.764;9.796;2023-07-13T08:29:37;22.50;69.40
5901;DHT22;2976;49.764;9.796;2023-07-13T08:32:04;22.40;69.50
5901;DHT22;2976;49.764;9.796;2023-07-13T08:34:29;22.40;69.70
5901;DHT22;2976;49.764;9.796;2023-07-13T08:36:55;22.50;70.10
5901;DHT22;2976;49.764;9.796;2023-07-13T08:39:20;22.50;70.00
5901;DHT22;2976;49.764;9.796;2023-07-13T08:41:51;22.60;69.20
5901;DHT22;2976;49.764;9.796;2023-07-13T08:44:32;22.50;70.30
5901;DHT22;2976;49.764;9.796;2023-07-13T08:47:02;22.70;69.90
5901;DHT22;2976;49.764;9.796;2023-07-13T08:49:28;22.50;69.40
5901;DHT22;2976;49.764;9.796;2023-07-13T08:52:02;22.50;70.70
5901;DHT22;2976;49.764;9.796;2023-07-13T08:54:35;22.70;69.80
5901;DHT22;2976;49.764;9.796;2023-07-13T08:57:11;23.10;69.70
5901;DHT22;2976;49.764;9.796;2023-07-13T08:59:38;23.00;69.20
5901;DHT22;2976;49.764;9.796;2023-07-13T09:04:55;23.20;68.70
5901;DHT22;2976;49.764;9.796;2023-07-13T09:10:22;23.50;67.10
5901;DHT22;2976;49.764;9.796;2023-07-13T09:15:46;23.70;67.30
5901;DHT22;2976;49.764;9.796;2023-07-13T09:18:30;24.00;66.80
5901;DHT22;2976;49.764;9.796;2023-07-13T09:21:02;24.20;66.30
5901;DHT22;2976;49.764;9.796;2023-07-13T09:23:29;24.10;65.40
5901;DHT22;2976;49.764;9.796;2023-07-13T09:26:11;24.10;64.80
5901;DHT22;2976;49.764;9.796;2023-07-13T09:28:46;24.20;65.20
5901;DHT22;2976;49.764;9.796;2023-07-13T09:31:20;24.10;65.90
5901;DHT22;2976;49.764;9.796;2023-07-13T09:33:48;23.80;65.40
5901;DHT22;2976;49.764;9.796;2023-07-13T09:36:23;23.60;65.90
5901;DHT22;2976;49.764;9.796;2023-07-13T09:44:13;24.10;65.60
5901;DHT22;2976;49.764;9.796;2023-07-13T09:46:44;24.20;65.60
5901;DHT22;2976;49.764;9.796;2023-07-13T09:49:11;24.30;65.80
5901;DHT22;2976;49.764;9.796;2023-07-13T09:51:41;24.50;65.10
5901;DHT22;2976;49.764;9.796;2023-07-13T09:54:18;24.40;65.00
5901;DHT22;2976;49.764;9.796;2023-07-13T09:56:44;24.70;65.00
5901;DHT22;2976;49.764;9.796;2023-07-13T09:59:20;24.10;65.00
5901;DHT22;2976;49.764;9.796;2023-07-13T10:01:46;23.70;65.80
5901;DHT22;2976;49.764;9.796;2023-07-13T10:04:17;23.40;66.60
5901;DHT22;2976;49.764;9.796;2023-07-13T10:06:44;23.20;67.80
5901;DHT22;2976;49.764;9.796;2023-07-13T10:09:17;22.90;68.10
5901;DHT22;2976;49.764;9.796;2023-07-13T10:11:44;22.90;68.30
5901;DHT22;2976;49.764;9.796;2023-07-13T10:14:20;22.90;68.30
5901;DHT22;2976;49.764;9.796;2023-07-13T10:16:57;23.10;67.90
5901;DHT22;2976;49.764;9.796;2023-07-13T10:19:29;23.50;67.10
5901;DHT22;2976;49.764;9.796;2023-07-13T10:21:59;23.80;66.70
5901;DHT22;2976;49.764;9.796;2023-07-13T10:24:27;23.90;63.90
5901;DHT22;2976;49.764;9.796;2023-07-13T10:27:01;24.10;62.60
5901;DHT22;2976;49.764;9.796;2023-07-13T10:29:34;24.30;62.90
5901;DHT22;2976;49.764;9.796;2023-07-13T10:32:00;24.70;62.60
5901;DHT22;2976;49.764;9.796;2023-07-13T10:34:26;25.00;63.40
5901;DHT22;2976;49.764;9.796;2023-07-13T10:36:52;25.70;61.40
5901;DHT22;2976;49.764;9.796;2023-07-13T10:39:21;25.70;62.10
5901;DHT22;2976;49.764;9.796;2023-07-13T10:41:53;25.20;60.70
5901;DHT22;2976;49.764;9.796;2023-07-13T10:44:30;24.40;63.20
5901;DHT22;2976;49.764;9.796;2023-07-13T10:47:02;24.00;63.70
5901;DHT22;2976;49.764;9.796;2023-07-13T10:49:31;23.70;62.60
5901;DHT22;2976;49.764;9.796;2023-07-13T10:51:57;23.40;64.20
5901;DHT22;2976;49.764;9.796;2023-07-13T10:59:39;24.20;63.80
5901;DHT22;2976;49.764;9.796;2023-07-13T11:02:15;24.40;60.70
5901;DHT22;2976;49.764;9.796;2023-07-13T11:04:48;24.50;62.40
5901;DHT22;2976;49.764;9.796;2023-07-13T11:07:24;24.80;60.80
5901;DHT22;2976;49.764;9.796;2023-07-13T11:09:55;24.60;60.60
5901;DHT22;2976;49.764;9.796;2023-07-13T11:19:53;24.30;61.40
5901;DHT22;2976;49.764;9.796;2023-07-13T11:22:25;24.20;61.80
5901;DHT22;2976;49.764;9.796;2023-07-13T11:24:56;24.40;62.00
5901;DHT22;2976;49.764;9.796;2023-07-13T11:27:30;24.10;61.90
5901;DHT22;2976;49.764;9.796;2023-07-13T11:32:44;24.10;62.60
5901;DHT22;2976;49.764;9.796;2023-07-13T11:35:21;24.00;62.20
5901;DHT22;2976;49.764;9.796;2023-07-13T11:37:48;23.70;62.20
5901;DHT22;2976;49.764;9.796;2023-07-13T11:40:14;23.70;63.00
5901;DHT22;2976;49.764;9.796;2023-07-13T11:42:40;23.90;62.70
5901;DHT22;2976;49.764;9.796;2023-07-13T11:45:19;24.00;63.10
5901;DHT22;2976;49.764;9.796;2023-07-13T11:47:48;24.10;63.40
5901;DHT22;2976;49.764;9.796;2023-07-13T11:50:20;24.10;61.90
5901;DHT22;2976;49.764;9.796;2023-07-13T11:52:46;24.00;63.20
5901;DHT22;2976;49.764;9.796;2023-07-13T11:55:16;24.00;63.60
5901;DHT22;2976;49.764;9.796;2023-07-13T11:57:56;23.80;63.30
5901;DHT22;2976;49.764;9.796;2023-07-13T12:00:29;23.80;63.20
5901;DHT22;2976;49.764;9.796;2023-07-13T12:02:59;23.90;63.70
5901;DHT22;2976;49.764;9.796;2023-07-13T12:05:26;24.20;62.90
5901;DHT22;2976;49.764;9.796;2023-07-13T12:07:52;24.20;63.60
5901;DHT22;2976;49.764;9.796;2023-07-13T12:10:25;24.40;62.60
5901;DHT22;2976;49.764;9.796;2023-07-13T12:12:58;24.40;61.80
5901;DHT22;2976;49.764;9.796;2023-07-13T12:15:41;24.30;62.80
5901;DHT22;2976;49.764;9.796;2023-07-13T12:18:15;24.10;62.50
5901;DHT22;2976;49.764;9.796;2023-07-13T12:20:41;24.20;61.60
5901;DHT22;2976;49.764;9.796;2023-07-13T12:25:54;24.80;61.50
5901;DHT22;2976;49.764;9.796;2023-07-13T12:28:38;25.00;60.30
5901;DHT22;2976;49.764;9.796;2023-07-13T12:31:07;25.00;60.50
5901;DHT22;2976;49.764;9.796;2023-07-13T12:33:45;24.90;61.30
5901;DHT22;2976;49.764;9.796;2023-07-13T12:36:12;25.20;61.30
5901;DHT22;2976;49.764;9.796;2023-07-13T12:38:37;25.30;59.50
5901;DHT22;2976;49.764;9.796;2023-07-13T12:41:03;25.20;60.10
5901;DHT22;2976;49.764;9.796;2023-07-13T12:43:33;25.40;58.60
5901;DHT22;2976;49.764;9.796;2023-07-13T12:46:04;25.70;58.70
5901;DHT22;2976;49.764;9.796;2023-07-13T12:48:38;25.80;58.80
5901;DHT22;2976;49.764;9.796;2023-07-13T12:51:04;25.60;58.50
5901;DHT22;2976;49.764;9.796;2023-07-13T12:53:30;25.10;58.70
5901;DHT22;2976;49.764;9.796;2023-07-13T12:56:02;24.80;59.30
5901;DHT22;2976;49.764;9.796;2023-07-13T12:58:35;24.60;59.70
5901;DHT22;2976;49.764;9.796;2023-07-13T13:01:02;24.70;60.60
5901;DHT22;2976;49.764;9.796;2023-07-13T13:03:33;24.70;60.20
5901;DHT22;2976;49.764;9.796;2023-07-13T13:06:02;24.70;61.10
5901;DHT22;2976;49.764;9.796;2023-07-13T13:08:30;24.80;60.40
5901;DHT22;2976;49.764;9.796;2023-07-13T13:10:55;24.60;62.20
5901;DHT22;2976;49.764;9.796;2023-07-13T13:13:21;24.60;61.20
5901;DHT22;2976;49.764;9.796;2023-07-13T13:15:47;24.70;61.90
5901;DHT22;2976;49.764;9.796;2023-07-13T13:18:17;24.70;60.30
5901;DHT22;2976;49.764;9.796;2023-07-13T13:20:43;24.90;60.20
5901;DHT22;2976;49.764;9.796;2023-07-13T13:23:14;24.90;59.70
5901;DHT22;2976;49.764;9.796;2023-07-13T13:25:42;25.00;60.20
5901;DHT22;2976;49.764;9.796;2023-07-13T13:28:17;24.90;60.90
5901;DHT22;2976;49.764;9.796;2023-07-13T13:30:44;24.70;59.90
5901;DHT22;2976;49.764;9.796;2023-07-13T13:33:11;24.70;59.80
5901;DHT22;2976;49.764;9.796;2023-07-13T13:35:37;24.90;61.30
5901;DHT22;2976;49.764;9.796;2023-07-13T13:38:10;25.30;59.40
5901;DHT22;2976;49.764;9.796;2023-07-13T13:40:36;25.00;59.30
5901;DHT22;2976;49.764;9.796;2023-07-13T13:43:02;25.00;59.50
5901;DHT22;2976;49.764;9.796;2023-07-13T13:45:27;24.90;59.40
5901;DHT22;2976;49.764;9.796;2023-07-13T13:47:53;24.80;60.70
5901;DHT22;2976;49.764;9.796;2023-07-13T13:50:21;25.10;61.30
5901;DHT22;2976;49.764;9.796;2023-07-13T13:52:48;25.60;58.00
5901;DHT22;2976;49.764;9.796;2023-07-13T13:55:19;25.90;58.80
5901;DHT22;2976;49.764;9.796;2023-07-13T13:57:45;25.80;57.50
5901;DHT22;2976;49.764;9.796;2023-07-13T14:00:12;25.60;57.80
5901;DHT22;2976;49.764;9.796;2023-07-13T14:02:41;25.30;58.00
5901;DHT22;2976;49.764;9.796;2023-07-13T14:05:12;24.90;57.60
5901;DHT22;2976;49.764;9.796;2023-07-13T14:07:38;24.60;58.40
5901;DHT22;2976;49.764;9.796;2023-07-13T14:10:15;24.30;58.20
5901;DHT22;2976;49.764;9.796;2023-07-13T14:12:50;24.20;59.70
5901;DHT22;2976;49.764;9.796;2023-07-13T14:15:23;24.20;59.30
5901;DHT22;2976;49.764;9.796;2023-07-13T14:17:49;24.20;59.20
5901;DHT22;2976;49.764;9.796;2023-07-13T14:20:15;24.10;59.40
5901;DHT22;2976;49.764;9.796;2023-07-13T14:22:41;24.10;59.70
5901;DHT22;2976;49.764;9.796;2023-07-13T14:25:11;24.20;58.50
5901;DHT22;2976;49.764;9.796;2023-07-13T14:27:38;24.20;58.30
5901;DHT22;2976;49.764;9.796;2023-07-13T14:30:12;24.30;57.80
5901;DHT22;2976;49.764;9.796;2023-07-13T14:32:37;24.40;57.80
5901;DHT22;2976;49.764;9.796;2023-07-13T14:35:03;24.50;58.20
5901;DHT22;2976;49.764;9.796;2023-07-13T14:37:29;24.70;58.00
5901;DHT22;2976;49.764;9.796;2023-07-13T14:39:54;24.70;58.20
5901;DHT22;2976;49.764;9.796;2023-07-13T14:42:20;24.90;58.20
5901;DHT22;2976;49.764;9.796;2023-07-13T14:44:45;24.80;58.00
5901;DHT22;2976;49.764;9.796;2023-07-13T14:47:11;24.80;58.60
5901;DHT22;2976;49.764;9.796;2023-07-13T14:49:42;25.00;58.00
5901;DHT22;2976;49.764;9.796;2023-07-13T14:52:20;25.00;57.10
5901;DHT22;2976;49.764;9.796;2023-07-13T14:54:46;25.00;57.30
5901;DHT22;2976;49.764;9.796;2023-07-13T14:57:14;24.70;57.80
5901;DHT22;2976;49.764;9.796;2023-07-13T14:59:41;24.50;58.80
5901;DHT22;2976;49.764;9.796;2023-07-13T15:02:29;24.50;59.50
5901;DHT22;2976;49.764;9.796;2023-07-13T15:04:56;24.50;58.40
5901;DHT22;2976;49.764;9.796;2023-07-13T15:07:22;24.30;57.50
5901;DHT22;2976;49.764;9.796;2023-07-13T15:09:48;24.40;57.10
5901;DHT22;2976;49.764;9.796;2023-07-13T15:12:14;24.50;57.10
5901;DHT22;2976;49.764;9.796;2023-07-13T15:14:40;24.70;57.90
5901;DHT22;2976;49.764;9.796;2023-07-13T15:17:22;25.00;56.70
5901;DHT22;2976;49.764;9.796;2023-07-13T15:19:49;25.00;56.20
5901;DHT22;2976;49.764;9.796;2023-07-13T15:22:15;25.00;56.40
5901;DHT22;2976;49.764;9.796;2023-07-13T15:24:41;25.00;56.60
5901;DHT22;2976;49.764;9.796;2023-07-13T15:27:12;25.00;56.60
5901;DHT22;2976;49.764;9.796;2023-07-13T15:29:38;24.90;57.00
5901;DHT22;2976;49.764;9.796;2023-07-13T15:32:12;24.90;57.90
5901;DHT22;2976;49.764;9.796;2023-07-13T15:34:38;24.70;57.50
5901;DHT22;2976;49.764;9.796;2023-07-13T15:37:08;24.30;57.90
5901;DHT22;2976;49.764;9.796;2023-07-13T15:39:37;24.50;58.10
5901;DHT22;2976;49.764;9.796;2023-07-13T15:42:03;24.60;58.70
5901;DHT22;2976;49.764;9.796;2023-07-13T15:44:30;24.80;58.00
5901;DHT22;2976;49.764;9.796;2023-07-13T15:46:57;25.00;57.90
5901;DHT22;2976;49.764;9.796;2023-07-13T15:49:25;24.90;57.70
5901;DHT22;2976;49.764;9.796;2023-07-13T15:51:51;24.60;57.90
5901;DHT22;2976;49.764;9.796;2023-07-13T15:54:18;24.50;58.60
5901;DHT22;2976;49.764;9.796;2023-07-13T15:56:51;24.50;58.00
5901;DHT22;2976;49.764;9.796;2023-07-13T15:59:18;24.20;58.50
5901;DHT22;2976;49.764;9.796;2023-07-13T16:01:43;24.00;59.10
5901;DHT22;2976;49.764;9.796;2023-07-13T16:04:11;23.80;59.60
5901;DHT22;2976;49.764;9.796;2023-07-13T16:06:39;23.60;59.20
5901;DHT22;2976;49.764;9.796;2023-07-13T16:09:06;23.50;60.20
5901;DHT22;2976;49.764;9.796;2023-07-13T16:11:35;23.60;59.60
5901;DHT22;2976;49.764;9.796;2023-07-13T16:14:00;23.60;59.90
5901;DHT22;2976;49.764;9.796;2023-07-13T16:16:28;23.70;60.00
5901;DHT22;2976;49.764;9.796;2023-07-13T16:18:55;24.00;60.60
5901;DHT22;2976;49.764;9.796;2023-07-13T16:21:29;23.90;59.80
5901;DHT22;2976;49.764;9.796;2023-07-13T16:23:57;23.90;59.30
5901;DHT22;2976;49.764;9.796;2023-07-13T16:26:30;24.00;59.40
5901;DHT22;2976;49.764;9.796;2023-07-13T16:29:20;24.10;59.70
5901;DHT22;2976;49.764;9.796;2023-07-13T16:32:15;24.10;60.30
5901;DHT22;2976;49.764;9.796;2023-07-13T16:34:42;24.40;59.50
5901;DHT22;2976;49.764;9.796;2023-07-13T16:37:15;24.50;58.50
5901;DHT22;2976;49.764;9.796;2023-07-13T16:39:48;24.30;58.10
5901;DHT22;2976;49.764;9.796;2023-07-13T16:42:18;24.30;58.90
5901;DHT22;2976;49.764;9.796;2023-07-13T16:44:44;24.10;58.00
5901;DHT22;2976;49.764;9.796;2023-07-13T16:47:16;24.20;58.30